aviador You're here:

KPNC Decoded Metar

PONCA CITY in OK, USA
Report Time2017-06-24 21:53:00
UTC Time2017-06-24 22:19:01
Flight Rules vfr VFR
Wind080° at 05 kt
W.Decomp.*RWY 35: 0.4 kt HW 5.0 kt RCW
W.Rank080° ranks 23
Current wind is below 080° avg. (7.6)
Visibility9999 m
Phenomena:N/A
Clouds:N/A
Expected CloudBase > 6,800 ft AGL from Temp-Dew spread
CeilingNone
Temp29°C (ISA +16)
Dew Point12°C (35% RH)
Heat Index28.2°C
AAT27.8°C
QNH1021 hPa
Density Alt2,769 ft
Elevation1,010 ft
Report Wrong Elevation
Raw Report
KPNC 242153Z AUTO 08005KT 10SM CLR 29/12 A3015 RMK AO2 SLP200
T02890117=

Extra information for KPNC:More info

Metar Taf Metar & Taf Last 4 Metars F.Rules Stats Wind Profile Meteogram Temp Stats Airport Information Weather charts Add Link Nearby VenuesMetar ALERT Operation Metar Decoded Social comments

AIRNAV info for KPNC